Latest Weather Observations for Redcliffe

IDQ60801

Issued at 5:35 am EST Saturday 1 November 2014 (issued every 30 minutes, with the page automatically refreshed every 10 minutes)

About weather observations | Map of weather stations | Latest weather observations for QLD | Other Formats
Station Details ID: 040958 Name: REDCLIFFE Lat: -27.22 Lon: 153.09 Height: 12.6 m
Data from the previous 72 hours. | See also: Recent months at Redcliffe
Date/Time
EST
Temp
°C
App
Temp
°C
Dew
Point
Rel
Hum
%
Delta-T
°C
Wind Press
QNH
hPa
Press
MSL
hPa
Rain
since 9 am
mm
Dir
 
Spd
km/h
Gust
km/h
Spd
kts
Gust
kts
01/05:30am 22.1 19.7 18.3 79 2.4 N 28 32 15 17 1015.0 1014.9 0.0
01/05:00am 22.1 20.9 18.3 79 2.4 N 22 28 12 15 1014.7 1014.6 0.0
01/04:30am 22.1 21.8 18.3 79 2.4 N 17 28 9 15 1014.5 1014.4 0.0
01/04:00am 22.1 21.2 18.3 79 2.4 N 20 28 11 15 1014.3 1014.2 0.0
01/03:30am 22.1 20.9 18.3 79 2.4 N 22 30 12 16 1014.1 1014.0 0.0
01/03:00am 22.2 21.5 18.2 78 2.5 N 19 26 10 14 1013.9 1013.8 0.0
01/02:30am 22.3 21.1 18.3 78 2.5 N 22 30 12 16 1014.1 1014.0 0.0
01/02:00am 22.5 21.6 18.1 76 2.7 N 20 28 11 15 1014.2 1014.1 0.0
01/01:30am 22.6 21.1 18.6 78 2.5 N 24 30 13 16 1014.3 1014.2 0.0
01/01:00am 22.6 22.1 19.0 80 2.3 N 20 30 11 16 1014.3 1014.2 0.0
01/12:30am 22.7 21.4 19.1 80 2.3 N 24 32 13 17 1014.5 1014.4 0.0
01/12:00am 22.9 21.3 19.1 79 2.4 N 26 37 14 20 1014.8 1014.7 0.0
 
Date/Time
EST
Temp
°C
App
Temp
°C
Dew
Point
Rel
Hum
%
Delta-T
°C
Wind Press
QNH
hPa
Press
MSL
hPa
Rain
since 9 am
mm
Dir
 
Spd
km/h
Gust
km/h
Spd
kts
Gust
kts
31/11:30pm 23.1 22.3 19.3 79 2.4 N 22 32 12 17 1015.2 1015.1 0.0
31/11:00pm 23.1 21.2 19.3 79 2.4 N 28 35 15 19 1015.5 1015.4 0.0
31/10:30pm 23.2 20.4 19.1 78 2.6 N 32 37 17 20 1015.8 1015.7 0.0
31/10:00pm 23.4 20.0 19.1 77 2.7 N 35 43 19 23 1015.6 1015.5 0.0
31/09:30pm 23.6 19.9 19.1 76 2.9 N 37 41 20 22 1015.7 1015.6 0.0
31/09:00pm 23.6 20.8 19.5 78 2.6 N 33 43 18 23 1015.8 1015.7 0.0
31/08:30pm 23.7 19.5 19.0 75 3.0 N 39 46 21 25 1015.5 1015.4 0.0
31/08:00pm 23.7 19.1 18.8 74 3.1 N 41 48 22 26 1015.0 1014.9 0.0
31/07:30pm 23.8 19.4 18.4 72 3.4 N 39 46 21 25 1014.8 1014.7 0.0
31/07:00pm 24.0 19.6 18.4 71 3.5 N 39 43 21 23 1014.4 1014.3 0.0
31/06:30pm 24.0 18.9 18.6 72 3.4 N 43 50 23 27 1014.2 1014.1 0.0
31/06:00pm 24.1 19.0 18.7 72 3.4 N 43 52 23 28 1013.7 1013.6 0.0
31/05:30pm 24.3 19.9 18.5 70 3.7 N 39 44 21 24 1013.6 1013.5 0.0
31/05:00pm 25.0 21.3 18.4 66 4.2 NNE 35 41 19 22 1013.6 1013.5 0.0
31/04:30pm 25.4 21.7 18.3 65 4.5 NNE 35 43 19 23 1013.3 1013.2 0.0
31/04:00pm 25.4 21.8 18.6 66 4.3 NNE 35 44 19 24 1013.2 1013.1 0.0
31/03:30pm 25.4 21.2 18.1 64 4.6 NNE 37 41 20 22 1013.2 1013.1 0.0
31/03:00pm 25.9 21.6 18.6 64 4.6 NNE 39 44 21 24 1013.4 1013.3 0.0
31/02:30pm 26.7 23.1 18.6 61 5.2 NE 35 41 19 22 1013.6 1013.5 0.0
31/02:00pm 27.2 24.2 19.8 64 4.8 NE 35 39 19 21 1013.7 1013.6 0.0
31/01:30pm 26.1 22.9 18.5 63 4.8 NE 33 37 18 20 1014.1 1014.0 0.0
31/01:00pm 26.4 23.3 17.5 58 5.6 NE 30 35 16 19 1014.5 1014.4 0.0
31/12:30pm 26.3 23.2 18.4 61 5.0 NE 32 35 17 19 1015.0 1014.9 0.0
31/12:00pm 26.8 24.6 18.6 60 5.2 NE 28 33 15 18 1015.3 1015.2 0.0
31/11:30am 26.3 23.2 16.5 54 6.1 NE 28 32 15 17 1015.7 1015.6 0.0
31/11:00am 26.1 24.4 18.2 61 5.0 NE 24 28 13 15 1015.9 1015.8 0.0
31/10:30am 26.8 25.7 17.8 57 5.7 NE 20 28 11 15 1016.4 1016.3 0.0
31/10:00am 27.3 26.2 17.2 54 6.3 NE 19 22 10 12 1016.7 1016.6 0.0
31/09:30am 26.2 24.6 16.4 54 6.0 ENE 20 24 11 13 1016.9 1016.8 0.0
31/09:00am 26.3 26.1 17.6 58 5.5 NNE 15 19 8 10 1017.1 1017.0 0.0
31/08:30am 25.3 25.3 18.2 64 4.5 NNE 15 19 8 10 1017.1 1017.0 0.0
31/08:00am 24.3 24.7 19.1 73 3.3 NNE 15 19 8 10 1017.3 1017.2 0.0
31/07:30am 24.1 24.9 19.0 73 3.2 NNE 13 17 7 9 1017.3 1017.2 0.0
31/07:00am 23.8 24.2 19.1 75 3.0 NNE 15 17 8 9 1016.8 1016.7 0.0
31/06:30am 23.7 24.1 19.0 75 3.0 N 15 17 8 9 1016.8 1016.7 0.0
31/06:00am 23.5 23.8 18.8 75 3.0 N 15 19 8 10 1016.6 1016.5 0.0
31/05:30am 23.5 23.8 17.9 71 3.5 NNE 13 17 7 9 1016.1 1016.0 0.0
31/05:00am 23.4 23.7 17.8 71 3.5 NNE 13 15 7 8 1015.7 1015.6 0.0
31/04:30am 23.2 23.7 18.3 74 3.1 N 13 17 7 9 1015.6 1015.5 0.0
31/04:00am 23.1 24.1 17.8 72 3.3 N 9 13 5 7 1015.1 1015.0 0.0
31/03:30am 23.1 23.1 17.3 70 3.6 N 13 17 7 9 1015.0 1014.9 0.0
31/03:00am 23.1 23.8 18.8 77 2.7 N 13 19 7 10 1014.9 1014.8 0.0
31/02:30am 23.3 24.5 17.3 69 3.7 NNW 7 11 4 6 1014.8 1014.7 0.0
31/02:00am 23.1 23.7 17.6 71 3.4 N 11 15 6 8 1014.9 1014.8 0.0
31/01:30am 23.2 24.5 18.5 75 3.0 N 9 11 5 6 1015.2 1015.1 0.0
31/01:00am 23.2 23.8 17.6 71 3.5 N 11 13 6 7 1015.3 1015.2 0.0
31/12:30am 23.3 23.8 18.4 74 3.1 N 13 17 7 9 1015.5 1015.4 0.0
31/12:00am 23.2 23.5 18.7 76 2.8 N 15 19 8 10 1015.8 1015.7 0.0
 
Date/Time
EST
Temp
°C
App
Temp
°C
Dew
Point
Rel
Hum
%
Delta-T
°C
Wind Press
QNH
hPa
Press
MSL
hPa
Rain
since 9 am
mm
Dir
 
Spd
km/h
Gust
km/h
Spd
kts
Gust
kts
30/11:30pm 23.3 23.5 18.6 75 3.0 NNE 15 19 8 10 1015.8 1015.7 0.0
30/11:00pm 23.3 23.1 18.6 75 3.0 NNE 17 22 9 12 1016.3 1016.2 0.0
30/10:30pm 23.1 22.4 18.6 76 2.8 N 20 24 11 13 1016.5 1016.4 0.0
30/10:00pm 23.1 22.4 18.6 76 2.8 N 20 26 11 14 1016.7 1016.6 0.0
30/09:30pm 23.1 22.0 18.6 76 2.8 NNE 22 28 12 15 1016.3 1016.2 0.0
30/09:00pm 23.0 21.5 18.5 76 2.8 NNE 24 28 13 15 1016.2 1016.1 0.0
30/08:30pm 23.1 21.1 18.4 75 3.0 NNE 26 30 14 16 1016.0 1015.9 0.0
30/08:00pm 23.2 21.2 18.3 74 3.1 NNE 26 28 14 15 1015.7 1015.6 0.0
30/07:30pm 23.1 21.4 18.2 74 3.1 NE 24 28 13 15 1015.6 1015.5 0.0
30/07:00pm 23.1 21.4 18.2 74 3.1 NE 24 30 13 16 1015.1 1015.0 0.0
30/06:30pm 23.2 22.3 18.1 73 3.2 NE 20 26 11 14 1014.9 1014.8 0.0
30/06:00pm 23.3 21.3 18.2 73 3.2 NE 26 30 14 16 1014.6 1014.5 0.0
30/05:30pm 23.5 21.8 18.2 72 3.3 NE 24 28 13 15 1014.3 1014.2 0.0
30/05:00pm 24.0 22.4 18.4 71 3.5 ENE 24 28 13 15 1014.1 1014.0 0.0
30/04:30pm 24.3 22.3 18.2 68 3.8 NE 26 30 14 16 1013.7 1013.6 0.0
30/04:00pm 24.5 22.4 18.0 67 4.1 NE 26 30 14 16 1013.7 1013.6 0.0
30/03:30pm 25.2 23.0 17.9 64 4.6 NE 26 28 14 15 1013.8 1013.7 0.0
30/03:00pm 24.6 22.9 17.3 64 4.5 NE 22 26 12 14 1013.8 1013.7 0.0
30/02:30pm 25.5 24.5 18.9 67 4.2 NE 22 26 12 14 1013.8 1013.7 0.0
30/02:00pm 25.1 23.2 17.6 63 4.7 E 24 28 13 15 1014.0 1013.9 0.0
30/01:30pm 25.8 24.2 17.4 59 5.2 E 22 26 12 14 1014.3 1014.2 0.0
30/01:00pm 26.0 24.9 17.4 59 5.4 E 19 22 10 12 1014.9 1014.8 0.0
30/12:30pm 26.2 25.4 17.0 57 5.7 E 17 19 9 10 1015.5 1015.4 0.0
30/12:00pm 26.3 25.4 16.8 56 5.9 E 17 20 9 11 1015.9 1015.8 0.0
30/11:30am 25.8 25.0 16.1 55 5.9 ESE 15 17 8 9 1016.3 1016.2 0.0
30/11:00am 25.0 24.6 16.2 58 5.4 ESE 13 15 7 8 1016.7 1016.6 0.0
30/10:30am 25.0 24.6 16.2 58 5.4 ESE 13 15 7 8 1017.0 1016.9 0.0
30/10:00am 25.1 25.0 16.0 57 5.5 ESE 11 13 6 7 1017.4 1017.3 0.0
30/09:30am 24.0 23.3 15.5 59 5.1 SE 13 17 7 9 1017.7 1017.6 0.0
30/09:00am 24.4 23.7 15.3 57 5.5 SSE 13 17 7 9 1017.9 1017.8 0.0
30/08:30am 24.5 23.4 15.4 57 5.5 S 15 19 8 10 1018.1 1018.0 0.0
30/08:00am 24.1 22.8 15.9 60 5.0 S 17 19 9 10 1018.3 1018.2 0.0
30/07:30am 23.3 22.0 15.9 63 4.5 S 17 19 9 10 1018.2 1018.1 0.0
30/07:00am 22.5 21.5 15.6 65 4.1 S 15 19 8 10 1018.0 1017.9 0.0
30/06:30am 21.5 20.7 16.2 72 3.2 S 15 19 8 10 1017.6 1017.5 0.0
30/06:00am 21.0 20.2 16.2 74 2.9 SSW 15 19 8 10 1017.4 1017.3 0.0
30/05:30am 20.2 18.6 16.0 77 2.5 S 19 22 10 12 1016.9 1016.8 0.0
30/05:00am 19.9 18.4 16.2 79 2.2 S 19 24 10 13 1016.4 1016.3 0.0
30/04:30am 20.0 18.3 16.2 79 2.3 S 20 26 11 14 1016.1 1016.0 0.0
30/04:00am 20.2 18.6 16.4 79 2.3 S 20 26 11 14 1016.0 1015.9 0.0
30/03:30am 20.3 18.9 16.5 79 2.3 S 19 22 10 12 1015.9 1015.8 0.0
30/03:00am 20.6 19.2 16.6 78 2.4 S 19 24 10 13 1016.1 1016.0 0.0
30/02:30am 21.0 20.0 16.6 76 2.7 S 17 22 9 12 1016.0 1015.9 0.0
30/02:00am 21.5 19.9 16.5 73 3.0 SSE 20 24 11 13 1016.1 1016.0 0.0
30/01:30am 21.8 19.7 14.7 64 4.2 SE 19 22 10 12 1016.1 1016.0 0.0
30/01:00am 22.0 19.9 14.6 63 4.3 SE 19 22 10 12 1016.2 1016.1 0.0
30/12:30am 22.2 20.0 14.8 63 4.4 SE 20 24 11 13 1016.4 1016.3 0.0
30/12:00am 22.0 20.2 15.4 66 3.9 SSE 19 22 10 12 1016.8 1016.7 0.0
 
Date/Time
EST
Temp
°C
App
Temp
°C
Dew
Point
Rel
Hum
%
Delta-T
°C
Wind Press
QNH
hPa
Press
MSL
hPa
Rain
since 9 am
mm
Dir
 
Spd
km/h
Gust
km/h
Spd
kts
Gust
kts
29/11:30pm 22.2 20.5 15.8 67 3.8 SSE 19 22 10 12 1017.1 1017.0 0.0
29/11:00pm 22.4 20.9 16.2 68 3.7 SE 19 24 10 13 1017.3 1017.2 0.0
29/10:30pm 22.7 20.9 16.0 66 4.0 SE 20 26 11 14 1017.4 1017.3 0.0
29/10:00pm 22.9 21.2 16.2 66 4.1 SE 20 24 11 13 1017.4 1017.3 0.0
29/09:30pm 23.0 20.9 16.1 65 4.2 SE 22 28 12 15 1017.3 1017.2 0.0
29/09:00pm 23.1 20.9 15.9 64 4.3 SE 22 28 12 15 1017.4 1017.3 0.0
29/08:30pm 23.1 20.1 15.9 64 4.3 ESE 26 28 14 15 1017.2 1017.1 0.0
29/08:00pm 23.2 19.9 16.0 64 4.4 ESE 28 32 15 17 1016.8 1016.7 0.0
29/07:30pm 23.1 19.7 15.7 63 4.5 ESE 28 35 15 19 1016.6 1016.5 0.0
29/07:00pm 23.2 19.7 15.5 62 4.6 ESE 28 32 15 17 1016.2 1016.1 0.0
29/06:30pm 23.2 19.9 16.0 64 4.4 ESE 28 33 15 18 1015.7 1015.6 0.0
29/06:00pm 23.4 19.3 16.0 63 4.5 SE 32 37 17 20 1015.2 1015.1 0.0
29/05:30pm 23.9 19.7 15.7 60 5.0 SE 32 37 17 20 1014.7 1014.6 0.0
29/05:00pm 24.1 19.5 15.1 57 5.4 SE 33 37 18 20 1014.5 1014.4 0.0
29/04:30pm 24.5 20.8 17.5 65 4.4 SE 33 39 18 21 1014.2 1014.1 0.0
29/04:00pm 24.7 21.2 17.4 64 4.5 SE 32 39 17 21 1013.7 1013.6 0.0
29/03:30pm 24.8 20.7 16.5 60 5.1 SE 33 39 18 21 1013.5 1013.4 0.0
29/03:00pm 25.4 21.4 16.8 59 5.3 SE 33 39 18 21 1013.5 1013.4 0.0
29/02:30pm 25.3 21.0 15.9 56 5.7 SE 33 37 18 20 1013.4 1013.3 0.0
29/02:00pm 25.8 22.0 16.6 56 5.7 SE 32 39 17 21 1013.5 1013.4 0.0
29/01:30pm 26.8 23.0 15.8 51 6.7 ESE 30 33 16 18 1013.7 1013.6 0.0
29/01:00pm 26.0 23.1 17.1 58 5.5 ESE 28 32 15 17 1013.8 1013.7 0.0
29/12:30pm 26.6 22.3 15.3 50 6.9 SE 32 37 17 20 1014.1 1014.0 0.0
29/12:00pm 26.2 22.1 16.4 54 6.0 SE 33 39 18 21 1014.3 1014.2 0.0
29/11:30am 26.4 23.7 17.5 58 5.6 SE 28 33 15 18 1014.6 1014.5 0.0
29/11:00am 25.9 22.9 16.7 57 5.7 SE 28 33 15 18 1014.7 1014.6 0.0
29/10:30am 26.3 23.0 17.1 57 5.7 SE 30 35 16 19 1014.7 1014.6 0.0
29/10:00am 25.9 23.0 17.0 58 5.5 SE 28 30 15 16 1014.9 1014.8 0.0
29/09:30am 24.7 21.9 17.2 63 4.7 SE 28 32 15 17 1015.0 1014.9 0.0
29/09:00am 25.2 24.0 18.4 66 4.3 SE 22 28 12 15 1014.9 1014.8 0.0
29/08:30am 24.7 24.2 16.9 62 4.8 SSE 15 19 8 10 1014.7 1014.6 0.0
29/08:00am 25.5 25.8 17.9 63 4.8 S 13 17 7 9 1014.6 1014.5 0.0
29/07:30am 24.0 24.0 17.3 66 4.2 S 13 17 7 9 1014.4 1014.3 0.0
29/07:00am 22.7 22.9 17.6 73 3.2 S 13 17 7 9 1014.1 1014.0 0.0
29/06:30am 21.6 23.0 18.6 83 1.9 SSW 9 13 5 7 1013.7 1013.6 0.0
29/06:00am 19.4 19.0 17.2 87 1.3 S 15 20 8 11 1013.3 1013.2 0.0

Other Formats:

Comma delimited format used in spreadsheet applications
http://www.bom.gov.au/fwo/IDQ60801/IDQ60801.95591.axf

JavaScript Object Notation format (JSON) in row-major order
http://www.bom.gov.au/fwo/IDQ60801/IDQ60801.95591.json